Latest Coastal Weather Observations for Hogan Island

IDV60701

Issued at 11:51 pm EDT Wednesday 10 February 2016 (issued every 10 minutes, with the page automatically refreshed every 10 minutes)

About coastal observations | Map of coastal stations | Coastal observations for VIC | Marine services | Other Formats
Station Details ID: 200838 Name: HOGAN ISLAND Lat: -39.22 Lon: 146.98 Height: 116.0 m
Data from the previous 72 hours. | See also: Recent months at Hogan Island
Date/Time
EDT
Temp

°C
Wind Pressure Rain
since 9am
mm
Weather Cloud Vis
km
Sea
Height
m
Swell
Dir
 
Speed
knots
Gust
knots
hPa Trend Height
m
Period
s
Dir
10/11:30pm 17.2 WSW 21 24 1015.0 - 0.0 - - - - - - -
10/11:00pm 17.4 WSW 24 28 1015.1 - 0.0 - - - - - - -
10/10:30pm 17.3 W 24 28 1015.0 - 0.0 - - - - - - -
10/10:00pm 17.3 WSW 26 29 1014.7 - 0.0 - - - - - - -
10/09:30pm 17.4 W 27 30 1014.5 - 0.0 - - - - - - -
10/09:00pm 17.3 WSW 26 29 1014.1 - 0.0 - - - - - - -
10/08:30pm 17.4 WSW 25 28 1014.2 - 0.0 - - - - - - -
10/08:00pm 17.8 WSW 24 28 1014.1 - 0.0 - - - - - - -
10/07:30pm 18.3 WSW 25 29 1013.7 - 0.0 - - - - - - -
10/07:00pm 18.7 W 24 27 1013.7 - 0.0 - - - - - - -
10/06:30pm 19.2 WSW 23 27 1013.6 - 0.0 - - - - - - -
10/06:00pm 19.8 W 23 27 1013.2 - 0.0 - - - - - - -
10/05:30pm 20.0 W 23 27 1013.5 - 0.0 - - - - - - -
10/05:00pm 20.1 W 23 26 1013.5 - 0.0 - - - - - - -
10/04:30pm 20.2 W 23 26 1013.4 - 0.0 - - - - - - -
10/04:00pm 21.3 WSW 22 25 1013.7 - 0.0 - - - - - - -
10/03:30pm 21.0 W 21 25 1013.8 - 0.0 - - - - - - -
10/03:00pm 20.2 WSW 22 25 1013.7 - 0.0 - - - - - - -
10/02:30pm 20.9 WSW 23 26 1014.0 - 0.0 - - - - - - -
10/02:00pm 20.9 WSW 22 27 1014.3 - 0.0 - - - - - - -
10/01:30pm 20.7 W 21 25 1014.4 - 0.0 - - - - - - -
10/01:00pm 20.7 W 22 26 1014.6 - 0.0 - - - - - - -
10/12:30pm 21.1 W 22 25 1014.7 - 0.0 - - - - - - -
10/12:00pm 20.0 W 22 25 1014.6 - 0.0 - - - - - - -
10/11:30am 19.2 W 24 27 1015.0 - 0.0 - - - - - - -
10/11:00am 18.7 W 23 26 1015.0 - 0.0 - - - - - - -
10/10:30am 20.1 W 19 23 1015.1 - 0.0 - - - - - - -
10/10:00am 19.3 W 19 21 1014.9 - 0.0 - - - - - - -
10/09:30am 19.1 W 16 19 1014.9 - 0.0 - - - - - - -
10/09:00am 18.4 W 17 19 1014.8 - 0.0 - - - - - - -
10/08:30am 18.1 WSW 16 18 1014.8 - 0.0 - - - - - - -
10/08:00am 17.5 WSW 20 23 1014.6 - 0.0 - - - - - - -
10/07:30am 17.0 WSW 18 21 1014.3 - 0.0 - - - - - - -
10/07:00am 16.9 W 17 19 1014.2 - 0.0 - - - - - - -
10/06:30am 17.0 WSW 16 19 1014.1 - 0.0 - - - - - - -
10/06:00am 17.0 WSW 17 19 1013.7 - 0.0 - - - - - - -
10/05:30am 17.3 W 16 19 1013.9 - 0.0 - - - - - - -
10/05:00am 17.3 WSW 15 17 1013.9 - 0.0 - - - - - - -
10/04:30am 17.0 WSW 15 17 1013.9 - 0.0 - - - - - - -
10/04:00am 16.9 WSW 14 16 1014.2 - 0.0 - - - - - - -
10/03:30am 17.1 WSW 12 14 1014.4 - 0.0 - - - - - - -
10/03:00am 16.9 W 11 12 1014.3 - 0.0 - - - - - - -
10/02:30am 16.8 W 8 9 1014.9 - 0.0 - - - - - - -
10/02:00am 16.6 W 7 7 1015.2 - 0.0 - - - - - - -
10/01:30am 16.6 W 6 7 1015.4 - 0.0 - - - - - - -
10/01:00am 16.7 W 5 6 1015.8 - 0.0 - - - - - - -
10/12:30am 16.7 W 6 7 1016.3 - 0.0 - - - - - - -
10/12:00am 17.2 WNW 4 5 1016.2 - 0.0 - - - - - - -
 
Date/Time
EDT
Temp

°C
Wind Pressure Rain
since 9am
mm
Weather Cloud Vis
km
Sea
Height
m
Swell
Dir
 
Speed
knots
Gust
knots
hPa Trend Height
m
Period
s
Dir
09/11:30pm 17.4 CALM 0 2 1016.8 - 0.0 - - - - - - -
09/11:00pm 17.3 NNW 4 6 1017.2 - 0.0 - - - - - - -
09/10:30pm 17.2 NNW 5 6 1017.5 - 0.0 - - - - - - -
09/10:00pm 16.9 NNW 5 6 1017.5 - 0.0 - - - - - - -
09/09:30pm 17.2 NNW 5 6 1017.6 - 0.0 - - - - - - -
09/09:00pm 17.2 NNW 5 6 1017.2 - 0.0 - - - - - - -
09/08:30pm 17.3 N 6 6 1017.7 - 0.0 - - - - - - -
09/08:00pm 17.8 N 5 7 1017.7 - 0.0 - - - - - - -
09/07:30pm 18.7 NNE 6 8 1017.7 - 0.0 - - - - - - -
09/07:00pm 19.3 N 5 7 1017.8 - 0.0 - - - - - - -
09/06:30pm 20.0 NNE 6 8 1017.8 - 0.0 - - - - - - -
09/06:00pm 21.1 N 5 7 1017.7 - 0.0 - - - - - - -
09/05:30pm 21.7 WNW 4 6 1018.1 - 0.0 - - - - - - -
09/05:00pm 21.8 N 5 7 1018.3 - 0.0 - - - - - - -
09/04:30pm 21.7 N 5 9 1018.7 - 0.0 - - - - - - -
09/04:00pm 21.1 NNE 7 9 1019.0 - 0.0 - - - - - - -
09/03:30pm 21.2 NE 8 12 1019.3 - 0.0 - - - - - - -
09/03:00pm 21.3 ENE 8 9 1019.3 - 0.0 - - - - - - -
09/02:30pm 21.2 ENE 6 8 1019.9 - 0.0 - - - - - - -
09/02:00pm 20.6 ENE 7 10 1020.0 - 0.0 - - - - - - -
09/01:30pm 21.1 E 7 10 1020.2 - 0.0 - - - - - - -
09/01:00pm 21.3 E 8 11 1020.6 - 0.0 - - - - - - -
09/12:30pm 20.8 E 8 10 1021.0 - 0.0 - - - - - - -
09/12:00pm 21.1 WNW 4 7 1020.9 - 0.0 - - - - - - -
09/11:30am 20.8 NNE 5 8 1021.4 - 0.0 - - - - - - -
09/11:00am 21.0 NNW 4 7 1021.5 - 0.0 - - - - - - -
09/10:30am 21.1 N 5 8 1021.4 - 0.0 - - - - - - -
09/10:00am 21.1 N 6 9 1021.4 - 0.0 - - - - - - -
09/09:30am 19.9 N 7 9 1021.4 - 0.0 - - - - - - -
09/09:00am 19.0 N 8 10 1021.0 - 0.0 - - - - - - -
09/08:30am 17.7 WNW 12 15 1021.1 - 0.0 - - - - - - -
09/08:00am 17.1 WNW 13 15 1020.8 - 0.0 - - - - - - -
09/07:30am 16.7 W 15 18 1020.6 - 0.0 - - - - - - -
09/07:00am 16.5 W 17 20 1020.4 - 0.0 - - - - - - -
09/06:30am 16.3 W 17 19 1020.2 - 0.0 - - - - - - -
09/06:00am 16.4 WNW 13 16 1019.8 - 0.0 - - - - - - -
09/05:30am 16.6 WNW 10 12 1020.1 - 0.0 - - - - - - -
09/05:00am 16.3 W 14 16 1019.7 - 0.0 - - - - - - -
09/04:30am 16.3 W 17 19 1019.6 - 0.0 - - - - - - -
09/04:00am 16.4 WSW 17 19 1019.6 - 0.0 - - - - - - -
09/03:30am 16.5 W 17 19 1019.9 - 0.0 - - - - - - -
09/03:00am 16.6 W 15 19 1019.9 - 0.0 - - - - - - -
09/02:30am 16.6 W 16 19 1020.3 - 0.0 - - - - - - -
09/02:00am 16.7 W 18 21 1020.6 - 0.0 - - - - - - -
09/01:30am 16.9 W 22 24 1020.6 - 0.0 - - - - - - -
09/01:00am 16.8 WSW 20 22 1020.7 - 0.0 - - - - - - -
09/12:30am 16.9 WSW 20 23 1020.8 - 0.0 - - - - - - -
09/12:00am 17.0 WSW 21 25 1020.3 - 0.0 - - - - - - -
 
Date/Time
EDT
Temp

°C
Wind Pressure Rain
since 9am
mm
Weather Cloud Vis
km
Sea
Height
m
Swell
Dir
 
Speed
knots
Gust
knots
hPa Trend Height
m
Period
s
Dir
08/11:30pm 17.0 WSW 24 28 1020.8 - 0.0 - - - - - - -
08/11:00pm 17.0 WSW 25 28 1021.0 - 0.0 - - - - - - -
08/10:30pm 17.2 WSW 25 28 1021.1 - 0.0 - - - - - - -
08/10:00pm 17.0 WSW 27 30 1020.9 - 0.0 - - - - - - -
08/09:30pm 17.3 WSW 30 35 1020.6 - 0.0 - - - - - - -
08/09:00pm 17.3 W 27 31 1020.0 - 0.0 - - - - - - -
08/08:30pm 17.4 W 28 32 1020.2 - 0.0 - - - - - - -
08/08:00pm 18.0 W 28 31 1020.1 - 0.0 - - - - - - -
08/07:30pm 18.3 W 28 32 1019.6 - 0.0 - - - - - - -
08/07:00pm 18.7 W 28 32 1019.4 - 0.0 - - - - - - -
08/06:30pm 19.1 W 30 34 1019.1 - 0.0 - - - - - - -
08/06:00pm 19.6 W 29 34 1019.0 - 0.0 - - - - - - -
08/05:30pm 19.9 W 30 35 1019.2 - 0.0 - - - - - - -
08/05:00pm 20.3 W 29 34 1019.5 - 0.0 - - - - - - -
08/04:30pm 20.5 W 28 33 1019.9 - 0.0 - - - - - - -
08/04:00pm 21.3 W 26 29 1020.0 - 0.0 - - - - - - -
08/03:30pm 21.2 W 26 31 1020.1 - 0.0 - - - - - - -
08/03:00pm 21.2 W 26 30 1019.9 - 0.0 - - - - - - -
08/02:30pm 21.2 W 25 29 1020.3 - 0.0 - - - - - - -
08/02:00pm 21.5 WSW 25 29 1020.4 - 0.0 - - - - - - -
08/01:30pm 21.3 WSW 24 28 1020.6 - 0.0 - - - - - - -
08/01:00pm 21.6 WSW 24 28 1020.6 - 0.0 - - - - - - -
08/12:30pm 21.6 WSW 24 27 1020.6 - 0.0 - - - - - - -
08/12:00pm 21.6 WSW 23 27 1020.3 - 0.0 - - - - - - -
08/11:30am 21.5 WSW 22 26 1020.6 - 0.0 - - - - - - -
08/11:00am 20.9 WSW 23 27 1020.5 - 0.0 - - - - - - -
08/10:30am 21.0 W 22 26 1020.4 - 0.0 - - - - - - -
08/10:00am 20.0 W 22 24 1020.3 - 0.0 - - - - - - -
08/09:30am 20.1 W 21 24 1020.1 - 0.0 - - - - - - -
08/09:00am 19.2 W 20 22 1019.7 - 0.0 - - - - - - -
08/08:30am 18.6 W 21 24 1019.7 - 0.0 - - - - - - -
08/08:00am 18.1 W 23 25 1019.3 - 0.0 - - - - - - -
08/07:30am 17.6 WSW 20 23 1019.3 - 0.0 - - - - - - -
08/07:00am 17.4 W 19 22 1019.1 - 0.0 - - - - - - -
08/06:30am 17.4 W 22 24 1018.8 - 0.0 - - - - - - -
08/06:00am 17.4 W 22 24 1018.5 - 0.0 - - - - - - -
08/05:30am 17.6 WSW 23 27 1018.4 - 0.0 - - - - - - -
08/05:00am 17.8 W 23 26 1018.3 - 0.0 - - - - - - -
08/04:30am 17.8 WSW 21 25 1018.1 - 0.0 - - - - - - -
08/04:00am 17.7 WSW 20 22 1018.0 - 0.0 - - - - - - -
08/03:30am 18.0 WSW 18 21 1018.0 - 0.0 - - - - - - -
08/03:00am 17.8 WSW 18 20 1017.9 - 0.0 - - - - - - -
08/02:30am 18.3 WSW 19 22 1018.3 - 0.0 - - - - - - -
08/02:00am 18.4 W 18 20 1018.3 - 0.0 - - - - - - -
08/01:00am 18.8 W 17 20 1018.5 - 0.0 - - - - - - -
08/12:30am 19.2 WNW 12 13 1018.3 - 0.0 - - - - - - -
08/12:00am 19.1 NW 10 11 1018.0 - 0.0 - - - - - - -

Other Formats:

Comma delimited format used in spreadsheet applications
http://www.bom.gov.au/fwo/IDV60701/IDV60701.94949.axf

JavaScript Object Notation format (JSON) in row-major order
http://www.bom.gov.au/fwo/IDV60701/IDV60701.94949.json